createdAt,value
2018-10-06T00:00:24.153Z,12.50
2018-10-06T00:02:52.812Z,11.27
2018-10-06T00:05:21.401Z,11.13
2018-10-06T00:07:49.954Z,14.37
2018-10-06T00:10:18.488Z,12.33
2018-10-06T00:12:46.993Z,12.23
2018-10-06T00:15:15.531Z,14.30
2018-10-06T00:17:44.025Z,12.80
2018-10-06T00:20:14.126Z,13.70
2018-10-06T00:22:42.646Z,13.73
2018-10-06T00:25:12.111Z,11.53
2018-10-06T00:27:40.634Z,14.07
2018-10-06T00:30:09.372Z,14.90
2018-10-06T00:32:37.922Z,13.60
2018-10-06T00:35:06.463Z,16.87
2018-10-06T00:37:35.017Z,20.57
2018-10-06T00:40:05.121Z,13.93
2018-10-06T00:42:33.583Z,15.20
2018-10-06T00:45:04.534Z,16.10
2018-10-06T00:47:33.050Z,12.33
2018-10-06T00:50:03.430Z,15.37
2018-10-06T00:52:31.946Z,17.93
2018-10-06T00:55:00.505Z,17.17
2018-10-06T00:57:29.051Z,13.40
2018-10-06T00:59:57.589Z,15.67
2018-10-06T01:02:26.202Z,14.33
2018-10-06T01:04:54.737Z,17.70
2018-10-06T01:07:23.662Z,18.53
2018-10-06T01:09:52.565Z,20.50
2018-10-06T01:12:21.384Z,15.53
2018-10-06T01:14:49.883Z,19.53
2018-10-06T01:17:18.369Z,15.23
2018-10-06T01:19:46.905Z,18.77
2018-10-06T01:22:18.241Z,18.20
2018-10-06T01:24:46.791Z,17.97
2018-10-06T01:27:15.533Z,18.47
2018-10-06T01:29:44.031Z,21.13
2018-10-06T01:32:12.586Z,18.53
2018-10-06T01:34:41.128Z,19.53
2018-10-06T01:37:09.647Z,21.70
2018-10-06T01:39:38.219Z,20.13
2018-10-06T01:42:06.824Z,25.57
2018-10-06T01:44:36.329Z,19.13
2018-10-06T01:47:05.215Z,19.63
2018-10-06T01:49:33.736Z,17.47
2018-10-06T01:52:03.691Z,18.50
2018-10-06T01:54:32.207Z,20.20
2018-10-06T01:57:00.972Z,16.53
2018-10-06T01:59:29.499Z,19.70
2018-10-06T02:01:58.008Z,19.00
2018-10-06T02:04:26.868Z,20.07
2018-10-06T02:06:56.523Z,23.80
2018-10-06T02:09:25.132Z,25.70
2018-10-06T02:11:53.671Z,28.50
2018-10-06T02:14:22.182Z,25.53
2018-10-06T02:16:50.760Z,30.97
2018-10-06T02:19:19.262Z,26.23
2018-10-06T02:21:47.831Z,22.53
2018-10-06T02:24:16.323Z,26.57
2018-10-06T02:26:44.863Z,25.00
2018-10-06T02:29:13.416Z,26.70
2018-10-06T02:31:41.952Z,20.87
2018-10-06T02:34:10.479Z,23.23
2018-10-06T02:36:39.267Z,25.20
2018-10-06T02:39:07.895Z,22.50
2018-10-06T02:41:36.772Z,25.47
2018-10-06T02:44:05.271Z,21.73
2018-10-06T02:46:33.808Z,24.97
2018-10-06T02:49:03.711Z,23.37
2018-10-06T02:51:32.238Z,20.90
2018-10-06T02:54:03.189Z,20.07
2018-10-06T02:56:31.690Z,21.90
2018-10-06T02:59:00.274Z,22.53
2018-10-06T03:01:29.097Z,22.83
2018-10-06T03:03:57.594Z,21.17
2018-10-06T03:06:26.111Z,21.83
2018-10-06T03:08:54.629Z,20.97
2018-10-06T03:11:23.189Z,20.43
2018-10-06T03:13:51.684Z,21.03
2018-10-06T03:16:20.188Z,23.03
2018-10-06T03:18:48.807Z,19.40
2018-10-06T03:21:17.763Z,26.40
2018-10-06T03:23:46.354Z,22.77
2018-10-06T03:26:14.865Z,26.17
2018-10-06T03:28:43.487Z,24.60
2018-10-06T03:31:11.974Z,22.23
2018-10-06T03:33:40.774Z,24.23
2018-10-06T03:36:09.319Z,29.40
2018-10-06T03:38:37.818Z,26.80
2018-10-06T03:41:06.402Z,23.00
2018-10-06T03:43:34.880Z,24.20
2018-10-06T03:46:04.414Z,22.27
2018-10-06T03:48:33.028Z,24.60
2018-10-06T03:51:03.088Z,22.83
2018-10-06T03:53:31.716Z,24.33
2018-10-06T03:56:00.213Z,22.63
2018-10-06T03:58:28.793Z,22.63
2018-10-06T04:00:57.323Z,23.47
2018-10-06T04:03:25.813Z,23.00
2018-10-06T04:05:54.349Z,21.53
2018-10-06T04:08:22.911Z,22.33
2018-10-06T04:10:51.521Z,20.27
2018-10-06T04:13:20.056Z,19.50
2018-10-06T04:15:48.564Z,19.07
2018-10-06T04:18:17.066Z,19.67
2018-10-06T04:20:45.865Z,22.23
2018-10-06T04:23:14.442Z,19.47
2018-10-06T04:25:43.174Z,18.47
2018-10-06T04:28:12.002Z,19.67
2018-10-06T04:30:40.509Z,18.37
2018-10-06T04:33:09.078Z,17.67
2018-10-06T04:35:37.653Z,20.53
2018-10-06T04:38:07.778Z,16.37
2018-10-06T04:40:36.348Z,19.80
2018-10-06T04:43:05.157Z,17.60
2018-10-06T04:45:33.690Z,17.03
2018-10-06T04:48:03.734Z,18.33
2018-10-06T04:50:32.647Z,17.73
2018-10-06T04:53:03.294Z,18.03
2018-10-06T04:55:31.781Z,17.57
2018-10-06T04:58:02.897Z,19.87
2018-10-06T05:00:31.776Z,19.30
2018-10-06T05:03:00.258Z,21.07
2018-10-06T05:05:28.781Z,22.70
2018-10-06T05:07:57.353Z,19.13
2018-10-06T05:10:25.875Z,20.60
2018-10-06T05:12:54.411Z,17.80
2018-10-06T05:15:23.004Z,19.83
2018-10-06T05:17:51.507Z,20.23
2018-10-06T05:20:20.091Z,19.40
2018-10-06T05:22:48.783Z,19.30
2018-10-06T05:25:17.353Z,18.23
2018-10-06T05:27:45.853Z,18.77
2018-10-06T05:30:15.769Z,19.33
2018-10-06T05:32:44.302Z,17.53
2018-10-06T05:35:12.808Z,15.63
2018-10-06T05:37:41.581Z,18.43
2018-10-06T05:40:10.104Z,18.03
2018-10-06T05:42:38.656Z,17.83
2018-10-06T05:45:07.243Z,20.40
2018-10-06T05:47:35.793Z,15.80
2018-10-06T05:50:05.563Z,18.93
2018-10-06T05:52:34.101Z,16.37
2018-10-06T05:55:03.609Z,18.03
2018-10-06T05:57:32.118Z,17.27
2018-10-06T06:00:00.651Z,14.90
2018-10-06T06:02:29.258Z,21.93
2018-10-06T06:04:57.808Z,20.53
2018-10-06T06:07:26.417Z,17.07
2018-10-06T06:09:54.945Z,19.97
2018-10-06T06:12:23.485Z,19.13
2018-10-06T06:14:52.136Z,20.23
2018-10-06T06:17:20.646Z,20.17
2018-10-06T06:19:49.214Z,18.30
2018-10-06T06:22:17.727Z,19.97
2018-10-06T06:24:46.245Z,20.33
2018-10-06T06:27:14.798Z,21.60
2018-10-06T06:29:43.469Z,22.40
2018-10-06T06:32:11.990Z,20.80
2018-10-06T06:34:40.513Z,22.13
2018-10-06T06:37:09.382Z,21.23
2018-10-06T06:39:37.877Z,23.63
2018-10-06T06:42:06.575Z,21.20
2018-10-06T06:44:35.264Z,25.47
2018-10-06T06:47:06.461Z,24.60
2018-10-06T06:49:35.065Z,22.83
2018-10-06T06:52:04.673Z,31.30
2018-10-06T06:54:33.501Z,27.47
2018-10-06T06:57:03.277Z,28.17
2018-10-06T06:59:31.786Z,25.50
2018-10-06T07:02:00.405Z,30.60
2018-10-06T07:04:28.969Z,27.60
2018-10-06T07:06:57.739Z,27.90
2018-10-06T07:09:26.230Z,29.07
2018-10-06T07:11:54.780Z,36.33
2018-10-06T07:14:23.337Z,36.90
2018-10-06T07:16:51.964Z,38.07
2018-10-06T07:19:20.801Z,38.77
2018-10-06T07:21:49.345Z,38.43
2018-10-06T07:24:17.902Z,37.67
2018-10-06T07:26:46.385Z,39.77
2018-10-06T07:29:14.904Z,41.10
2018-10-06T07:31:43.525Z,41.87
2018-10-06T07:34:12.139Z,38.73
2018-10-06T07:36:40.648Z,44.23
2018-10-06T07:39:09.153Z,41.47
2018-10-06T07:41:37.648Z,42.60
2018-10-06T07:44:06.223Z,41.73
2018-10-06T07:46:34.831Z,38.73
2018-10-06T07:49:04.573Z,39.67
2018-10-06T07:51:33.119Z,39.37
2018-10-06T07:54:02.766Z,41.37
2018-10-06T07:56:31.319Z,37.60
2018-10-06T07:58:59.815Z,39.60
2018-10-06T08:01:28.328Z,39.83
2018-10-06T08:03:56.853Z,35.37
2018-10-06T08:06:25.415Z,34.20
2018-10-06T08:08:53.926Z,34.00
2018-10-06T08:11:22.431Z,32.33
2018-10-06T08:13:51.130Z,32.70
2018-10-06T08:16:20.016Z,31.50
2018-10-06T08:18:48.568Z,31.60
2018-10-06T08:21:18.283Z,28.47
2018-10-06T08:23:46.848Z,35.03
2018-10-06T08:26:16.326Z,29.57
2018-10-06T08:28:44.877Z,33.93
2018-10-06T08:31:13.423Z,31.33
2018-10-06T08:33:41.948Z,31.73
2018-10-06T08:36:10.509Z,30.80
2018-10-06T08:38:39.080Z,28.30
2018-10-06T08:41:07.578Z,29.43
2018-10-06T08:43:36.364Z,33.13
2018-10-06T08:46:05.703Z,28.53
2018-10-06T08:48:34.278Z,29.10
2018-10-06T08:51:04.122Z,29.47
2018-10-06T08:53:32.651Z,27.30
2018-10-06T08:56:03.410Z,26.27
2018-10-06T08:58:31.831Z,25.53
2018-10-06T09:01:00.474Z,25.90
2018-10-06T09:03:28.977Z,26.23
2018-10-06T09:05:57.510Z,29.90
2018-10-06T09:08:26.238Z,21.03
2018-10-06T09:10:54.912Z,23.50
2018-10-06T09:13:24.158Z,24.33
2018-10-06T09:15:52.823Z,21.77
2018-10-06T09:18:21.312Z,26.47
2018-10-06T09:20:49.955Z,25.17
2018-10-06T09:23:18.444Z,22.90
2018-10-06T09:25:46.949Z,20.70
2018-10-06T09:28:15.512Z,22.63
2018-10-06T09:30:44.012Z,18.10
2018-10-06T09:33:12.692Z,17.57
2018-10-06T09:35:41.321Z,18.20
2018-10-06T09:38:09.924Z,18.50
2018-10-06T09:40:39.006Z,20.47
2018-10-06T09:43:07.472Z,17.80
2018-10-06T09:45:36.152Z,19.60
2018-10-06T09:48:06.155Z,18.60
2018-10-06T09:50:34.655Z,21.40
2018-10-06T09:53:05.504Z,19.40
2018-10-06T09:55:35.289Z,19.03
2018-10-06T09:58:05.742Z,20.43
2018-10-06T10:00:39.477Z,17.37
2018-10-06T10:03:13.206Z,20.37
2018-10-06T10:05:48.257Z,17.30
2018-10-06T10:08:17.229Z,17.10
2018-10-06T10:10:46.249Z,18.40
2018-10-06T10:13:14.774Z,16.93
2018-10-06T10:15:43.383Z,20.27
2018-10-06T10:18:12.290Z,16.97
2018-10-06T10:20:41.401Z,19.33
2018-10-06T10:23:10.273Z,18.53
2018-10-06T10:25:39.236Z,14.03
2018-10-06T10:28:07.026Z,16.27
2018-10-06T10:30:36.018Z,15.47
2018-10-06T10:33:06.041Z,16.50
2018-10-06T10:35:34.553Z,17.53
2018-10-06T10:38:05.472Z,15.47
2018-10-06T10:40:34.027Z,13.70
2018-10-06T10:43:05.766Z,14.70
2018-10-06T10:45:34.572Z,15.10
2018-10-06T10:48:04.784Z,15.57
2018-10-06T10:50:33.943Z,12.37
2018-10-06T10:53:04.248Z,12.47
2018-10-06T10:55:32.883Z,12.20
2018-10-06T10:58:03.949Z,13.80
2018-10-06T11:00:32.793Z,13.53
2018-10-06T11:03:02.994Z,12.27
2018-10-06T11:05:31.520Z,11.23
2018-10-06T11:08:00.053Z,9.20
2018-10-06T11:10:28.649Z,10.93
2018-10-06T11:12:57.138Z,11.97
2018-10-06T11:15:25.659Z,9.13
2018-10-06T11:17:54.183Z,11.30
2018-10-06T11:20:23.095Z,12.70
2018-10-06T11:22:51.839Z,8.90
2018-10-06T11:25:20.398Z,8.93
2018-10-06T11:27:48.984Z,8.77
2018-10-06T11:30:17.480Z,8.17
2018-10-06T11:32:46.033Z,10.40
2018-10-06T11:35:14.706Z,8.13
2018-10-06T11:37:43.453Z,9.60
2018-10-06T11:40:12.205Z,9.60
2018-10-06T11:42:40.712Z,9.97
2018-10-06T11:45:09.542Z,9.67
2018-10-06T11:47:38.249Z,9.03
2018-10-06T11:50:06.916Z,6.50
2018-10-06T11:52:35.588Z,11.47
2018-10-06T11:55:06.141Z,7.37
2018-10-06T11:57:34.677Z,7.83
2018-10-06T12:00:05.272Z,9.73
2018-10-06T12:02:34.268Z,8.33
2018-10-06T12:05:04.621Z,6.40
2018-10-06T12:07:33.162Z,7.17
2018-10-06T12:10:08.340Z,8.03
2018-10-06T12:12:36.880Z,7.43
2018-10-06T12:15:06.199Z,5.53
2018-10-06T12:17:34.824Z,5.13
2018-10-06T12:20:05.160Z,8.40
2018-10-06T12:22:33.704Z,7.33
2018-10-06T12:25:04.580Z,7.87
2018-10-06T12:27:33.154Z,6.83
2018-10-06T12:30:03.748Z,6.17
2018-10-06T12:32:32.297Z,6.90
2018-10-06T12:35:00.869Z,7.17
2018-10-06T12:37:29.772Z,9.20
2018-10-06T12:39:58.456Z,6.27
2018-10-06T12:42:27.029Z,7.17
2018-10-06T12:44:55.854Z,5.30
2018-10-06T12:47:24.493Z,10.43
2018-10-06T12:49:53.073Z,6.37
2018-10-06T12:52:21.631Z,11.80
2018-10-06T12:54:50.267Z,6.43
2018-10-06T12:57:18.836Z,7.57
2018-10-06T12:59:47.360Z,5.17
2018-10-06T13:02:16.096Z,7.23
2018-10-06T13:04:44.613Z,5.23
2018-10-06T13:07:13.109Z,5.90
2018-10-06T13:09:41.646Z,5.80
2018-10-06T13:12:10.534Z,7.07
2018-10-06T13:14:39.080Z,5.57
2018-10-06T13:17:07.636Z,7.00
2018-10-06T13:19:36.169Z,4.83
2018-10-06T13:22:05.737Z,5.67
2018-10-06T13:24:34.320Z,7.47
2018-10-06T13:27:05.211Z,7.20
2018-10-06T13:29:33.729Z,4.83
2018-10-06T13:32:03.754Z,9.50
2018-10-06T13:34:32.411Z,6.67
2018-10-06T13:37:03.735Z,8.27
2018-10-06T13:39:34.294Z,6.63
2018-10-06T13:42:04.638Z,9.17
2018-10-06T13:44:33.481Z,6.70
2018-10-06T13:47:04.420Z,7.07
2018-10-06T13:49:33.075Z,5.83
2018-10-06T13:52:03.646Z,6.13
2018-10-06T13:54:32.224Z,6.50
2018-10-06T13:57:00.877Z,6.83
2018-10-06T13:59:29.690Z,5.43
2018-10-06T14:01:58.322Z,6.97
2018-10-06T14:04:26.870Z,8.80
2018-10-06T14:06:55.387Z,7.50
2018-10-06T14:09:23.940Z,6.20
2018-10-06T14:11:52.458Z,5.40
2018-10-06T14:14:20.963Z,9.10
2018-10-06T14:16:49.841Z,8.60
2018-10-06T14:19:18.379Z,7.63
2018-10-06T14:21:46.932Z,6.90
2018-10-06T14:24:15.771Z,5.80
2018-10-06T14:26:44.290Z,7.13
2018-10-06T14:29:12.824Z,6.23
2018-10-06T14:31:41.448Z,9.33
2018-10-06T14:34:10.417Z,6.13
2018-10-06T14:36:39.217Z,6.40
2018-10-06T14:39:10.505Z,8.67
2018-10-06T14:41:39.042Z,8.30
2018-10-06T14:44:07.636Z,7.50
2018-10-06T14:46:36.193Z,6.87
2018-10-06T14:49:06.135Z,8.83
2018-10-06T14:51:34.704Z,7.07
2018-10-06T14:54:05.237Z,7.53
2018-10-06T14:56:33.781Z,7.43
2018-10-06T14:59:04.392Z,8.40
2018-10-06T15:01:32.932Z,12.20
2018-10-06T15:04:03.172Z,7.37
2018-10-06T15:06:31.865Z,6.17
2018-10-06T15:09:00.763Z,8.70
2018-10-06T15:11:29.299Z,7.10
2018-10-06T15:13:57.854Z,9.07
2018-10-06T15:16:26.375Z,8.50
2018-10-06T15:18:54.965Z,6.87
2018-10-06T15:21:23.700Z,9.50
2018-10-06T15:23:52.206Z,8.43
2018-10-06T15:26:20.788Z,11.23
2018-10-06T15:28:49.425Z,10.50
2018-10-06T15:31:17.943Z,10.37
2018-10-06T15:33:46.549Z,10.23
2018-10-06T15:36:15.091Z,8.40
2018-10-06T15:38:43.690Z,9.80
2018-10-06T15:41:12.233Z,6.77
2018-10-06T15:43:41.088Z,8.70
2018-10-06T15:46:09.801Z,10.37
2018-10-06T15:48:38.355Z,8.87
2018-10-06T15:51:07.059Z,10.67
2018-10-06T15:53:35.552Z,9.00
2018-10-06T15:56:05.160Z,10.37
2018-10-06T15:58:33.719Z,9.40
2018-10-06T16:01:03.878Z,14.50
2018-10-06T16:03:32.496Z,12.40
2018-10-06T16:06:03.498Z,8.17
2018-10-06T16:08:32.134Z,10.40
2018-10-06T16:11:03.223Z,9.27
2018-10-06T16:13:31.817Z,10.33
2018-10-06T16:16:00.834Z,8.80
2018-10-06T16:18:29.340Z,9.37
2018-10-06T16:20:57.947Z,9.10
2018-10-06T16:23:26.465Z,8.80
2018-10-06T16:25:55.004Z,9.87
2018-10-06T16:28:23.562Z,9.47
2018-10-06T16:30:52.156Z,12.17
2018-10-06T16:33:21.086Z,9.67
2018-10-06T16:35:49.601Z,10.93
2018-10-06T16:38:18.090Z,13.40
2018-10-06T16:40:46.652Z,11.30
2018-10-06T16:43:15.162Z,14.13
2018-10-06T16:45:43.705Z,13.80
2018-10-06T16:48:12.510Z,11.50
2018-10-06T16:50:41.350Z,12.43
2018-10-06T16:53:10.077Z,12.17
2018-10-06T16:55:38.704Z,15.27
2018-10-06T16:58:08.645Z,15.77
2018-10-06T17:00:37.300Z,14.80
2018-10-06T17:03:07.144Z,12.60
2018-10-06T17:05:35.671Z,13.83
2018-10-06T17:08:06.420Z,12.13
2018-10-06T17:10:34.983Z,15.77
2018-10-06T17:13:05.509Z,16.57
2018-10-06T17:15:34.127Z,19.47
2018-10-06T17:18:03.824Z,18.73
2018-10-06T17:20:32.802Z,17.83
2018-10-06T17:23:02.865Z,19.70
2018-10-06T17:25:31.385Z,22.60
2018-10-06T17:28:00.232Z,21.37
2018-10-06T17:30:28.721Z,25.13
2018-10-06T17:32:57.212Z,26.67
2018-10-06T17:35:25.777Z,24.50
2018-10-06T17:37:54.336Z,25.73
2018-10-06T17:40:23.237Z,26.47
2018-10-06T17:42:51.787Z,24.77
2018-10-06T17:45:20.328Z,30.43
2018-10-06T17:47:49.183Z,27.40
2018-10-06T17:50:17.872Z,31.50
2018-10-06T17:52:46.242Z,26.37
2018-10-06T17:55:14.792Z,30.47
2018-10-06T17:57:43.310Z,28.00
2018-10-06T18:00:11.873Z,29.73
2018-10-06T18:02:40.407Z,35.13
2018-10-06T18:05:08.919Z,31.70
2018-10-06T18:07:37.764Z,32.33
2018-10-06T18:10:06.317Z,33.47
2018-10-06T18:12:34.875Z,30.53
2018-10-06T18:15:05.898Z,29.37
2018-10-06T18:17:34.434Z,30.93
2018-10-06T18:20:05.069Z,30.20
2018-10-06T18:22:33.815Z,30.73
2018-10-06T18:25:04.712Z,36.23
2018-10-06T18:27:33.248Z,30.20
2018-10-06T18:30:02.739Z,32.27
2018-10-06T18:32:31.246Z,31.80
2018-10-06T18:34:59.966Z,35.20
2018-10-06T18:37:28.496Z,31.77
2018-10-06T18:39:57.040Z,34.40
2018-10-06T18:42:25.538Z,30.57
2018-10-06T18:44:54.041Z,37.23
2018-10-06T18:47:23.806Z,37.97
2018-10-06T18:49:52.437Z,33.50
2018-10-06T18:52:20.972Z,31.67
2018-10-06T18:54:49.538Z,36.83
2018-10-06T18:57:18.062Z,41.23
2018-10-06T18:59:46.573Z,42.20
2018-10-06T19:02:15.116Z,49.90
2018-10-06T19:04:43.960Z,43.83
2018-10-06T19:07:12.481Z,47.40
2018-10-06T19:09:40.977Z,47.90
2018-10-06T19:12:09.537Z,52.57
2018-10-06T19:14:38.186Z,51.83
2018-10-06T19:17:07.194Z,53.33
2018-10-06T19:19:35.702Z,51.87
2018-10-06T19:22:05.502Z,55.53
2018-10-06T19:24:34.310Z,52.63
2018-10-06T19:27:04.533Z,47.87
2018-10-06T19:29:33.145Z,49.73
2018-10-06T19:32:02.867Z,51.17
2018-10-06T19:34:31.387Z,51.13
2018-10-06T19:36:59.969Z,49.63
2018-10-06T19:39:28.504Z,56.80
2018-10-06T19:41:57.214Z,52.70
2018-10-06T19:44:25.790Z,53.53
2018-10-06T19:46:54.363Z,52.83
2018-10-06T19:49:22.856Z,57.63
2018-10-06T19:51:51.380Z,58.43
2018-10-06T19:54:19.980Z,61.83
2018-10-06T19:56:48.537Z,66.40
2018-10-06T19:59:17.153Z,67.70
2018-10-06T20:01:45.683Z,63.00
2018-10-06T20:04:14.383Z,65.30
2018-10-06T20:06:42.927Z,68.00
2018-10-06T20:09:11.912Z,74.40
2018-10-06T20:11:40.469Z,71.43
2018-10-06T20:14:09.219Z,71.40
2018-10-06T20:16:37.750Z,77.23
2018-10-06T20:19:06.366Z,77.47
2018-10-06T20:21:34.941Z,75.23
2018-10-06T20:24:07.486Z,74.53
2018-10-06T20:26:36.813Z,75.70
2018-10-06T20:29:06.475Z,77.03
2018-10-06T20:31:34.990Z,78.20
2018-10-06T20:34:05.958Z,81.83
2018-10-06T20:36:34.485Z,75.93
2018-10-06T20:39:08.361Z,81.27
2018-10-06T20:41:36.878Z,87.30
2018-10-06T20:44:05.475Z,80.43
2018-10-06T20:46:34.361Z,78.80
2018-10-06T20:49:04.987Z,85.03
2018-10-06T20:51:33.498Z,80.30
2018-10-06T20:54:07.017Z,87.10
2018-10-06T20:56:36.100Z,77.27
2018-10-06T20:59:06.471Z,83.67
2018-10-06T21:01:35.064Z,86.43
2018-10-06T21:04:06.072Z,95.03
2018-10-06T21:06:34.596Z,107.50
2018-10-06T21:09:06.128Z,114.63
2018-10-06T21:11:34.620Z,132.13
2018-10-06T21:14:04.827Z,127.47
2018-10-06T21:16:33.533Z,157.20
2018-10-06T21:19:04.873Z,155.07
2018-10-06T21:21:33.629Z,158.47
2018-10-06T21:24:03.410Z,156.37
2018-10-06T21:26:31.954Z,170.53
2018-10-06T21:29:00.537Z,155.13
2018-10-06T21:31:29.179Z,164.40
2018-10-06T21:33:57.655Z,173.70
2018-10-06T21:36:26.180Z,201.63
2018-10-06T21:38:55.012Z,210.10
2018-10-06T21:41:23.562Z,221.40
2018-10-06T21:43:52.242Z,226.30
2018-10-06T21:46:20.766Z,253.00
2018-10-06T21:48:49.326Z,255.77
2018-10-06T21:51:17.874Z,289.87
2018-10-06T21:53:46.388Z,273.47
2018-10-06T21:56:14.954Z,278.33
2018-10-06T21:58:43.985Z,281.30
2018-10-06T22:01:13.898Z,280.10
2018-10-06T22:03:43.233Z,271.50
2018-10-06T22:06:11.936Z,258.83
2018-10-06T22:08:40.504Z,265.00
2018-10-06T22:11:09.413Z,257.40
2018-10-06T22:13:37.958Z,264.90
2018-10-06T22:16:08.214Z,273.50
2018-10-06T22:18:36.814Z,274.23
2018-10-06T22:21:07.311Z,286.63
2018-10-06T22:23:35.861Z,287.40
2018-10-06T22:26:06.204Z,297.33
2018-10-06T22:28:34.733Z,304.27
2018-10-06T22:31:08.413Z,314.67
2018-10-06T22:33:36.944Z,290.17
2018-10-06T22:36:05.448Z,297.47
2018-10-06T22:38:33.997Z,299.20
2018-10-06T22:41:03.805Z,310.30
2018-10-06T22:43:32.405Z,307.03
2018-10-06T22:46:00.907Z,315.97
2018-10-06T22:48:29.429Z,304.07
2018-10-06T22:50:58.079Z,311.93
2018-10-06T22:53:26.658Z,310.23
2018-10-06T22:55:55.311Z,293.30
2018-10-06T22:58:23.909Z,303.80
2018-10-06T23:00:52.798Z,288.10
2018-10-06T23:03:21.425Z,290.23
2018-10-06T23:05:50.009Z,292.03
2018-10-06T23:08:18.544Z,269.80
2018-10-06T23:10:47.173Z,258.27
2018-10-06T23:13:15.757Z,247.43
2018-10-06T23:15:44.310Z,233.03
2018-10-06T23:18:12.829Z,219.13
2018-10-06T23:20:41.475Z,184.50
2018-10-06T23:23:10.086Z,169.87
2018-10-06T23:25:38.741Z,162.13
2018-10-06T23:28:09.362Z,164.40
2018-10-06T23:30:38.125Z,134.67
2018-10-06T23:33:06.891Z,128.30
2018-10-06T23:35:35.413Z,118.73
2018-10-06T23:38:07.144Z,108.23
2018-10-06T23:40:35.624Z,88.27
2018-10-06T23:43:05.488Z,73.87
2018-10-06T23:45:34.054Z,82.87
2018-10-06T23:48:03.934Z,74.77
2018-10-06T23:50:32.588Z,70.93
2018-10-06T23:53:02.941Z,68.40
2018-10-06T23:55:31.453Z,61.07
2018-10-06T23:57:59.970Z,63.53
